sensor_id;sensor_type;location;lat;lon;timestamp;pressure;altitude;pressure_sealevel;temperature;humidity
54978;BME280;40873;47.522;19.106;2022-12-24T00:01:03;99735.25;;;4.35;100.00
54978;BME280;40873;47.522;19.106;2022-12-24T00:03:31;99733.81;;;4.28;100.00
54978;BME280;40873;47.522;19.106;2022-12-24T00:06:03;99735.66;;;4.26;100.00
54978;BME280;40873;47.522;19.106;2022-12-24T00:08:31;99738.94;;;4.31;100.00
54978;BME280;40873;47.522;19.106;2022-12-24T00:10:58;99739.97;;;4.27;100.00
54978;BME280;40873;47.522;19.106;2022-12-24T00:13:25;99740.63;;;4.32;100.00
54978;BME280;40873;47.522;19.106;2022-12-24T00:15:52;99744.19;;;4.30;100.00
54978;BME280;40873;47.522;19.106;2022-12-24T00:18:22;99733.75;;;4.30;100.00
54978;BME280;40873;47.522;19.106;2022-12-24T00:20:49;99748.22;;;4.37;100.00
54978;BME280;40873;47.522;19.106;2022-12-24T00:23:17;99749.31;;;4.33;100.00
54978;BME280;40873;47.522;19.106;2022-12-24T00:25:44;99752.69;;;4.35;100.00
54978;BME280;40873;47.522;19.106;2022-12-24T00:28:12;99754.44;;;4.34;100.00
54978;BME280;40873;47.522;19.106;2022-12-24T00:30:41;99740.03;;;4.26;100.00
54978;BME280;40873;47.522;19.106;2022-12-24T00:33:09;99741.66;;;4.28;100.00
54978;BME280;40873;47.522;19.106;2022-12-24T00:35:37;99737.44;;;4.26;100.00
54978;BME280;40873;47.522;19.106;2022-12-24T00:38:05;99743.34;;;4.29;100.00
54978;BME280;40873;47.522;19.106;2022-12-24T00:40:33;99752.28;;;4.24;100.00
54978;BME280;40873;47.522;19.106;2022-12-24T00:43:00;99761.44;;;4.34;100.00
54978;BME280;40873;47.522;19.106;2022-12-24T00:45:27;99762.44;;;4.31;100.00
54978;BME280;40873;47.522;19.106;2022-12-24T00:47:54;99770.03;;;4.36;100.00
54978;BME280;40873;47.522;19.106;2022-12-24T00:50:21;99796.03;;;4.39;100.00
54978;BME280;40873;47.522;19.106;2022-12-24T00:52:48;99797.09;;;4.35;100.00
54978;BME280;40873;47.522;19.106;2022-12-24T00:55:15;99782.25;;;4.35;100.00
54978;BME280;40873;47.522;19.106;2022-12-24T00:57:42;99794.19;;;4.41;100.00
54978;BME280;40873;47.522;19.106;2022-12-24T01:00:09;99765.00;;;4.71;100.00
54978;BME280;40873;47.522;19.106;2022-12-24T01:02:37;99771.06;;;4.71;100.00
54978;BME280;40873;47.522;19.106;2022-12-24T01:05:04;99769.34;;;4.51;100.00
54978;BME280;40873;47.522;19.106;2022-12-24T01:07:41;99759.56;;;4.56;100.00
54978;BME280;40873;47.522;19.106;2022-12-24T01:10:11;99747.03;;;4.44;100.00
54978;BME280;40873;47.522;19.106;2022-12-24T01:12:39;99736.75;;;4.41;100.00
54978;BME280;40873;47.522;19.106;2022-12-24T01:15:07;99717.28;;;4.48;100.00
54978;BME280;40873;47.522;19.106;2022-12-24T01:17:35;99717.28;;;4.67;100.00
54978;BME280;40873;47.522;19.106;2022-12-24T01:20:04;99698.00;;;4.70;100.00
54978;BME280;40873;47.522;19.106;2022-12-24T01:22:32;99696.78;;;4.58;100.00
54978;BME280;40873;47.522;19.106;2022-12-24T01:24:59;99693.22;;;4.60;100.00
54978;BME280;40873;47.522;19.106;2022-12-24T01:27:26;99698.34;;;4.62;100.00
54978;BME280;40873;47.522;19.106;2022-12-24T01:29:53;99690.63;;;4.78;100.00
54978;BME280;40873;47.522;19.106;2022-12-24T01:32:20;99685.19;;;4.82;100.00
54978;BME280;40873;47.522;19.106;2022-12-24T01:34:47;99691.19;;;4.65;100.00
54978;BME280;40873;47.522;19.106;2022-12-24T01:37:14;99691.50;;;4.59;100.00
54978;BME280;40873;47.522;19.106;2022-12-24T01:39:41;99671.66;;;4.55;100.00
54978;BME280;40873;47.522;19.106;2022-12-24T01:42:20;99676.03;;;4.55;100.00
54978;BME280;40873;47.522;19.106;2022-12-24T01:48:11;99689.31;;;4.69;100.00
54978;BME280;40873;47.522;19.106;2022-12-24T01:50:40;99681.75;;;4.82;100.00
54978;BME280;40873;47.522;19.106;2022-12-24T01:53:07;99686.72;;;4.86;100.00
54978;BME280;40873;47.522;19.106;2022-12-24T01:55:35;99680.53;;;4.70;100.00
54978;BME280;40873;47.522;19.106;2022-12-24T01:58:04;99693.31;;;4.76;100.00
54978;BME280;40873;47.522;19.106;2022-12-24T02:00:32;99700.59;;;4.70;100.00
54978;BME280;40873;47.522;19.106;2022-12-24T02:02:59;99690.72;;;4.76;100.00
54978;BME280;40873;47.522;19.106;2022-12-24T02:05:35;99692.63;;;4.54;100.00
54978;BME280;40873;47.522;19.106;2022-12-24T02:08:06;99693.03;;;4.82;100.00
54978;BME280;40873;47.522;19.106;2022-12-24T02:10:33;99693.41;;;4.75;100.00
54978;BME280;40873;47.522;19.106;2022-12-24T02:13:01;99695.44;;;4.87;100.00
54978;BME280;40873;47.522;19.106;2022-12-24T02:32:01;99735.34;;;4.72;100.00
54978;BME280;40873;47.522;19.106;2022-12-24T02:34:44;99737.84;;;4.75;100.00
54978;BME280;40873;47.522;19.106;2022-12-24T02:37:35;99736.25;;;4.71;100.00
54978;BME280;40873;47.522;19.106;2022-12-24T02:40:13;99714.88;;;4.62;100.00
54978;BME280;40873;47.522;19.106;2022-12-24T02:42:46;99713.75;;;4.68;100.00
54978;BME280;40873;47.522;19.106;2022-12-24T02:45:17;99708.81;;;4.62;100.00
54978;BME280;40873;47.522;19.106;2022-12-24T02:47:46;99704.91;;;4.89;100.00
54978;BME280;40873;47.522;19.106;2022-12-24T02:50:15;99698.81;;;4.89;100.00
54978;BME280;40873;47.522;19.106;2022-12-24T02:52:45;99704.63;;;4.77;100.00
54978;BME280;40873;47.522;19.106;2022-12-24T03:00:34;99707.25;;;4.77;100.00
54978;BME280;40873;47.522;19.106;2022-12-24T03:06:03;99725.72;;;4.72;100.00
54978;BME280;40873;47.522;19.106;2022-12-24T03:11:19;99724.88;;;4.72;100.00
54978;BME280;40873;47.522;19.106;2022-12-24T03:13:46;99741.41;;;4.72;100.00
54978;BME280;40873;47.522;19.106;2022-12-24T03:16:18;99737.41;;;4.84;100.00
54978;BME280;40873;47.522;19.106;2022-12-24T03:18:48;99723.97;;;4.91;100.00
54978;BME280;40873;47.522;19.106;2022-12-24T03:21:37;99712.72;;;5.08;100.00
54978;BME280;40873;47.522;19.106;2022-12-24T03:24:05;99709.13;;;5.28;100.00
54978;BME280;40873;47.522;19.106;2022-12-24T03:26:33;99692.66;;;5.09;100.00
54978;BME280;40873;47.522;19.106;2022-12-24T03:29:04;99697.38;;;5.01;100.00
54978;BME280;40873;47.522;19.106;2022-12-24T03:31:41;99695.09;;;4.94;100.00
54978;BME280;40873;47.522;19.106;2022-12-24T03:34:08;99684.91;;;4.88;100.00
54978;BME280;40873;47.522;19.106;2022-12-24T03:36:35;99684.81;;;5.09;100.00
54978;BME280;40873;47.522;19.106;2022-12-24T03:39:03;99695.81;;;5.15;100.00
54978;BME280;40873;47.522;19.106;2022-12-24T03:41:30;99694.97;;;5.15;100.00
54978;BME280;40873;47.522;19.106;2022-12-24T03:43:57;99708.09;;;5.13;100.00
54978;BME280;40873;47.522;19.106;2022-12-24T03:46:24;99705.28;;;5.18;100.00
54978;BME280;40873;47.522;19.106;2022-12-24T03:48:51;99713.66;;;5.25;100.00
54978;BME280;40873;47.522;19.106;2022-12-24T03:51:21;99727.19;;;5.15;100.00
54978;BME280;40873;47.522;19.106;2022-12-24T03:53:50;99725.53;;;5.32;100.00
54978;BME280;40873;47.522;19.106;2022-12-24T03:56:17;99727.25;;;5.50;100.00
54978;BME280;40873;47.522;19.106;2022-12-24T03:58:44;99731.69;;;5.31;100.00
54978;BME280;40873;47.522;19.106;2022-12-24T04:01:11;99734.59;;;5.42;100.00
54978;BME280;40873;47.522;19.106;2022-12-24T04:03:38;99741.69;;;5.40;100.00
54978;BME280;40873;47.522;19.106;2022-12-24T04:06:11;99728.22;;;5.47;100.00
54978;BME280;40873;47.522;19.106;2022-12-24T04:08:38;99735.22;;;5.30;100.00
54978;BME280;40873;47.522;19.106;2022-12-24T04:11:09;99740.00;;;5.39;100.00
54978;BME280;40873;47.522;19.106;2022-12-24T04:13:36;99725.91;;;5.24;100.00
54978;BME280;40873;47.522;19.106;2022-12-24T04:16:10;99731.47;;;5.53;100.00
54978;BME280;40873;47.522;19.106;2022-12-24T04:18:37;99740.28;;;5.33;100.00
54978;BME280;40873;47.522;19.106;2022-12-24T04:21:05;99743.19;;;5.27;100.00
54978;BME280;40873;47.522;19.106;2022-12-24T04:23:34;99738.34;;;5.19;100.00
54978;BME280;40873;47.522;19.106;2022-12-24T04:26:03;99739.75;;;5.07;100.00
54978;BME280;40873;47.522;19.106;2022-12-24T04:28:32;99743.31;;;5.06;100.00
54978;BME280;40873;47.522;19.106;2022-12-24T04:31:07;99752.84;;;5.07;100.00
54978;BME280;40873;47.522;19.106;2022-12-24T04:33:34;99747.78;;;5.04;100.00
54978;BME280;40873;47.522;19.106;2022-12-24T04:36:03;99743.59;;;5.00;100.00
54978;BME280;40873;47.522;19.106;2022-12-24T04:38:31;99726.38;;;4.96;100.00
54978;BME280;40873;47.522;19.106;2022-12-24T04:40:59;99728.28;;;4.92;100.00
54978;BME280;40873;47.522;19.106;2022-12-24T04:43:27;99729.13;;;4.93;100.00
54978;BME280;40873;47.522;19.106;2022-12-24T04:45:54;99733.56;;;4.91;100.00
54978;BME280;40873;47.522;19.106;2022-12-24T04:48:22;99732.94;;;4.86;100.00
54978;BME280;40873;47.522;19.106;2022-12-24T04:50:49;99736.56;;;4.83;100.00
54978;BME280;40873;47.522;19.106;2022-12-24T04:53:16;99733.22;;;4.80;100.00
54978;BME280;40873;47.522;19.106;2022-12-24T04:55:46;99738.41;;;4.81;100.00
54978;BME280;40873;47.522;19.106;2022-12-24T04:58:13;99740.84;;;4.84;100.00
54978;BME280;40873;47.522;19.106;2022-12-24T05:00:40;99746.81;;;4.88;100.00
54978;BME280;40873;47.522;19.106;2022-12-24T05:03:07;99747.56;;;4.90;100.00
54978;BME280;40873;47.522;19.106;2022-12-24T05:05:34;99753.78;;;4.87;100.00
54978;BME280;40873;47.522;19.106;2022-12-24T05:08:01;99764.38;;;4.84;100.00
54978;BME280;40873;47.522;19.106;2022-12-24T05:10:28;99748.78;;;4.83;100.00
54978;BME280;40873;47.522;19.106;2022-12-24T05:12:55;99753.22;;;4.81;100.00
54978;BME280;40873;47.522;19.106;2022-12-24T05:15:22;99744.66;;;4.77;100.00
54978;BME280;40873;47.522;19.106;2022-12-24T05:17:49;99755.19;;;4.76;100.00
54978;BME280;40873;47.522;19.106;2022-12-24T05:20:17;99748.13;;;4.78;100.00
54978;BME280;40873;47.522;19.106;2022-12-24T05:22:43;99758.47;;;4.81;100.00
54978;BME280;40873;47.522;19.106;2022-12-24T05:25:35;99760.34;;;4.77;100.00
54978;BME280;40873;47.522;19.106;2022-12-24T05:28:22;99764.09;;;4.72;100.00
54978;BME280;40873;47.522;19.106;2022-12-24T05:30:50;99772.72;;;4.74;100.00
54978;BME280;40873;47.522;19.106;2022-12-24T05:33:17;99770.97;;;4.74;100.00
54978;BME280;40873;47.522;19.106;2022-12-24T05:35:44;99771.06;;;4.71;100.00
54978;BME280;40873;47.522;19.106;2022-12-24T05:38:11;99775.59;;;4.67;100.00
54978;BME280;40873;47.522;19.106;2022-12-24T05:40:38;99780.75;;;4.69;100.00
54978;BME280;40873;47.522;19.106;2022-12-24T05:43:05;99769.53;;;4.67;100.00
54978;BME280;40873;47.522;19.106;2022-12-24T05:45:32;99779.75;;;4.72;100.00
54978;BME280;40873;47.522;19.106;2022-12-24T05:47:59;99782.34;;;4.73;100.00
54978;BME280;40873;47.522;19.106;2022-12-24T05:50:26;99773.41;;;4.77;100.00
54978;BME280;40873;47.522;19.106;2022-12-24T05:52:53;99764.94;;;4.91;100.00
54978;BME280;40873;47.522;19.106;2022-12-24T05:55:20;99762.31;;;5.10;100.00
54978;BME280;40873;47.522;19.106;2022-12-24T05:57:47;99766.41;;;5.15;100.00
54978;BME280;40873;47.522;19.106;2022-12-24T06:00:14;99774.19;;;4.98;100.00
54978;BME280;40873;47.522;19.106;2022-12-24T06:02:41;99779.09;;;4.87;100.00
54978;BME280;40873;47.522;19.106;2022-12-24T06:05:08;99775.69;;;4.85;100.00
54978;BME280;40873;47.522;19.106;2022-12-24T06:07:35;99769.81;;;4.80;100.00
54978;BME280;40873;47.522;19.106;2022-12-24T06:10:03;99772.06;;;4.68;100.00
54978;BME280;40873;47.522;19.106;2022-12-24T06:12:30;99772.06;;;4.68;100.00
54978;BME280;40873;47.522;19.106;2022-12-24T06:14:57;99766.84;;;4.68;100.00
54978;BME280;40873;47.522;19.106;2022-12-24T06:17:24;99775.53;;;4.69;100.00
54978;BME280;40873;47.522;19.106;2022-12-24T06:19:51;99777.25;;;4.89;100.00
54978;BME280;40873;47.522;19.106;2022-12-24T06:22:18;99787.97;;;4.83;100.00
54978;BME280;40873;47.522;19.106;2022-12-24T06:24:45;99789.03;;;4.79;100.00
54978;BME280;40873;47.522;19.106;2022-12-24T06:27:12;99782.19;;;4.76;100.00
54978;BME280;40873;47.522;19.106;2022-12-24T06:29:39;99789.47;;;4.88;100.00
54978;BME280;40873;47.522;19.106;2022-12-24T06:32:06;99793.25;;;5.00;100.00
54978;BME280;40873;47.522;19.106;2022-12-24T06:34:33;99792.56;;;5.15;100.00
54978;BME280;40873;47.522;19.106;2022-12-24T06:37:00;99788.47;;;5.29;100.00
54978;BME280;40873;47.522;19.106;2022-12-24T06:39:27;99794.66;;;5.07;100.00
54978;BME280;40873;47.522;19.106;2022-12-24T06:41:54;99802.38;;;4.91;100.00
54978;BME280;40873;47.522;19.106;2022-12-24T06:44:21;99812.19;;;4.86;100.00
54978;BME280;40873;47.522;19.106;2022-12-24T06:46:48;99807.19;;;4.82;100.00
54978;BME280;40873;47.522;19.106;2022-12-24T06:49:15;99822.72;;;4.85;100.00
54978;BME280;40873;47.522;19.106;2022-12-24T06:51:42;99823.75;;;5.01;100.00
54978;BME280;40873;47.522;19.106;2022-12-24T06:54:09;99825.72;;;4.96;100.00
54978;BME280;40873;47.522;19.106;2022-12-24T06:56:36;99844.78;;;4.98;100.00
54978;BME280;40873;47.522;19.106;2022-12-24T06:59:03;99839.44;;;5.56;100.00
54978;BME280;40873;47.522;19.106;2022-12-24T07:01:31;99835.19;;;5.36;100.00
54978;BME280;40873;47.522;19.106;2022-12-24T07:03:58;99837.56;;;5.77;100.00
54978;BME280;40873;47.522;19.106;2022-12-24T07:06:27;99834.53;;;6.03;100.00
54978;BME280;40873;47.522;19.106;2022-12-24T07:08:55;99847.47;;;6.24;100.00
54978;BME280;40873;47.522;19.106;2022-12-24T07:11:23;99840.91;;;6.32;100.00
54978;BME280;40873;47.522;19.106;2022-12-24T07:13:50;99844.47;;;6.49;100.00
54978;BME280;40873;47.522;19.106;2022-12-24T07:16:17;99840.75;;;6.53;100.00
54978;BME280;40873;47.522;19.106;2022-12-24T07:18:45;99841.25;;;6.44;100.00
54978;BME280;40873;47.522;19.106;2022-12-24T07:21:12;99838.16;;;6.36;100.00
54978;BME280;40873;47.522;19.106;2022-12-24T07:23:39;99845.13;;;6.19;100.00
54978;BME280;40873;47.522;19.106;2022-12-24T07:26:06;99843.25;;;6.04;100.00
54978;BME280;40873;47.522;19.106;2022-12-24T07:28:33;99842.19;;;6.08;100.00
54978;BME280;40873;47.522;19.106;2022-12-24T07:31:00;99847.50;;;5.88;100.00
54978;BME280;40873;47.522;19.106;2022-12-24T07:33:27;99857.31;;;5.84;100.00
54978;BME280;40873;47.522;19.106;2022-12-24T07:36:02;99865.88;;;5.69;100.00
54978;BME280;40873;47.522;19.106;2022-12-24T07:38:30;99871.34;;;5.64;100.00
54978;BME280;40873;47.522;19.106;2022-12-24T07:40:58;99878.00;;;5.53;100.00
54978;BME280;40873;47.522;19.106;2022-12-24T07:43:26;99882.88;;;5.60;100.00
54978;BME280;40873;47.522;19.106;2022-12-24T07:45:56;99875.22;;;5.56;100.00
54978;BME280;40873;47.522;19.106;2022-12-24T07:48:25;99885.00;;;5.52;100.00
54978;BME280;40873;47.522;19.106;2022-12-24T07:50:52;99892.69;;;5.55;100.00
54978;BME280;40873;47.522;19.106;2022-12-24T07:53:20;99896.16;;;5.56;100.00
54978;BME280;40873;47.522;19.106;2022-12-24T07:55:47;99903.97;;;5.57;100.00
54978;BME280;40873;47.522;19.106;2022-12-24T07:58:14;99906.97;;;5.67;100.00
54978;BME280;40873;47.522;19.106;2022-12-24T08:00:40;99906.13;;;5.66;100.00
54978;BME280;40873;47.522;19.106;2022-12-24T08:03:15;99887.53;;;5.72;100.00
54978;BME280;40873;47.522;19.106;2022-12-24T08:05:43;99904.75;;;5.76;100.00
54978;BME280;40873;47.522;19.106;2022-12-24T08:08:10;99917.09;;;5.74;100.00
54978;BME280;40873;47.522;19.106;2022-12-24T08:10:38;99919.03;;;5.71;100.00
54978;BME280;40873;47.522;19.106;2022-12-24T08:13:06;99910.84;;;5.77;100.00
54978;BME280;40873;47.522;19.106;2022-12-24T08:15:33;99918.66;;;5.78;100.00
54978;BME280;40873;47.522;19.106;2022-12-24T08:18:00;99927.28;;;5.81;100.00
54978;BME280;40873;47.522;19.106;2022-12-24T08:20:27;99936.13;;;5.97;100.00
54978;BME280;40873;47.522;19.106;2022-12-24T08:22:54;99951.06;;;6.48;100.00
54978;BME280;40873;47.522;19.106;2022-12-24T08:25:23;99960.00;;;6.44;100.00
54978;BME280;40873;47.522;19.106;2022-12-24T08:27:51;99962.03;;;6.56;100.00
54978;BME280;40873;47.522;19.106;2022-12-24T08:30:17;99957.06;;;6.50;100.00
54978;BME280;40873;47.522;19.106;2022-12-24T08:32:47;99967.38;;;6.36;100.00
54978;BME280;40873;47.522;19.106;2022-12-24T08:35:14;99974.50;;;6.34;100.00
54978;BME280;40873;47.522;19.106;2022-12-24T08:37:42;99972.63;;;6.36;100.00
54978;BME280;40873;47.522;19.106;2022-12-24T08:40:10;99986.38;;;6.41;100.00
54978;BME280;40873;47.522;19.106;2022-12-24T08:42:37;99983.44;;;6.47;100.00
54978;BME280;40873;47.522;19.106;2022-12-24T08:45:05;99995.31;;;6.54;100.00
54978;BME280;40873;47.522;19.106;2022-12-24T08:47:32;99988.09;;;6.77;100.00
54978;BME280;40873;47.522;19.106;2022-12-24T08:49:59;99995.47;;;6.86;100.00
54978;BME280;40873;47.522;19.106;2022-12-24T08:52:26;100002.34;;;6.89;100.00
54978;BME280;40873;47.522;19.106;2022-12-24T08:54:53;100005.66;;;6.92;100.00
54978;BME280;40873;47.522;19.106;2022-12-24T08:57:20;99998.63;;;6.93;100.00
54978;BME280;40873;47.522;19.106;2022-12-24T08:59:47;100009.66;;;6.99;100.00
54978;BME280;40873;47.522;19.106;2022-12-24T09:02:14;100004.34;;;7.01;100.00
54978;BME280;40873;47.522;19.106;2022-12-24T09:04:41;100004.03;;;7.07;100.00
54978;BME280;40873;47.522;19.106;2022-12-24T09:07:09;100008.19;;;7.11;100.00
54978;BME280;40873;47.522;19.106;2022-12-24T09:09:36;100000.09;;;7.49;100.00
54978;BME280;40873;47.522;19.106;2022-12-24T09:12:05;100003.09;;;7.58;100.00
54978;BME280;40873;47.522;19.106;2022-12-24T09:14:32;100014.16;;;7.63;100.00
54978;BME280;40873;47.522;19.106;2022-12-24T09:16:59;100014.47;;;7.90;100.00
54978;BME280;40873;47.522;19.106;2022-12-24T09:19:27;100029.56;;;8.03;100.00
54978;BME280;40873;47.522;19.106;2022-12-24T09:21:59;100035.75;;;8.02;100.00
54978;BME280;40873;47.522;19.106;2022-12-24T09:24:26;100034.16;;;8.15;100.00
54978;BME280;40873;47.522;19.106;2022-12-24T09:26:53;100039.69;;;8.42;100.00
54978;BME280;40873;47.522;19.106;2022-12-24T09:29:24;100038.09;;;8.69;100.00
54978;BME280;40873;47.522;19.106;2022-12-24T09:31:51;100042.47;;;8.85;100.00
54978;BME280;40873;47.522;19.106;2022-12-24T09:34:18;100033.19;;;8.93;100.00
54978;BME280;40873;47.522;19.106;2022-12-24T09:36:52;100027.69;;;8.98;100.00
54978;BME280;40873;47.522;19.106;2022-12-24T09:39:19;100028.72;;;9.10;100.00
54978;BME280;40873;47.522;19.106;2022-12-24T09:44:42;100028.75;;;9.38;100.00
54978;BME280;40873;47.522;19.106;2022-12-24T09:50:25;100026.53;;;9.60;100.00
54978;BME280;40873;47.522;19.106;2022-12-24T09:52:55;100027.75;;;9.69;100.00
54978;BME280;40873;47.522;19.106;2022-12-24T09:55:33;100028.84;;;9.79;100.00
54978;BME280;40873;47.522;19.106;2022-12-24T09:58:04;100027.16;;;9.78;100.00
54978;BME280;40873;47.522;19.106;2022-12-24T10:00:36;100026.88;;;9.83;100.00
54978;BME280;40873;47.522;19.106;2022-12-24T10:03:13;100033.09;;;9.96;100.00
54978;BME280;40873;47.522;19.106;2022-12-24T10:08:20;100047.75;;;9.86;100.00
54978;BME280;40873;47.522;19.106;2022-12-24T10:10:52;100043.06;;;9.91;100.00
54978;BME280;40873;47.522;19.106;2022-12-24T10:15:59;100033.63;;;10.01;100.00
54978;BME280;40873;47.522;19.106;2022-12-24T10:21:23;100049.16;;;10.06;100.00
54978;BME280;40873;47.522;19.106;2022-12-24T10:29:14;100047.44;;;10.33;100.00
54978;BME280;40873;47.522;19.106;2022-12-24T10:31:57;100048.44;;;10.45;100.00
54978;BME280;40873;47.522;19.106;2022-12-24T10:34:28;100055.81;;;10.40;100.00
54978;BME280;40873;47.522;19.106;2022-12-24T10:36:57;100056.41;;;10.58;100.00
54978;BME280;40873;47.522;19.106;2022-12-24T10:39:25;100062.88;;;10.66;100.00
54978;BME280;40873;47.522;19.106;2022-12-24T10:41:54;100055.53;;;10.72;100.00
54978;BME280;40873;47.522;19.106;2022-12-24T10:44:28;100063.91;;;10.91;100.00
54978;BME280;40873;47.522;19.106;2022-12-24T10:46:56;100056.66;;;11.07;100.00
54978;BME280;40873;47.522;19.106;2022-12-24T10:49:37;100050.63;;;11.05;100.00
54978;BME280;40873;47.522;19.106;2022-12-24T10:52:11;100063.84;;;11.18;100.00
54978;BME280;40873;47.522;19.106;2022-12-24T10:55:09;100059.84;;;11.25;100.00
54978;BME280;40873;47.522;19.106;2022-12-24T10:57:37;100057.97;;;11.27;100.00
54978;BME280;40873;47.522;19.106;2022-12-24T11:00:23;100059.13;;;11.36;100.00
54978;BME280;40873;47.522;19.106;2022-12-24T11:05:39;100077.09;;;11.43;100.00
54978;BME280;40873;47.522;19.106;2022-12-24T11:08:16;100077.53;;;11.50;100.00
54978;BME280;40873;47.522;19.106;2022-12-24T11:10:58;100077.72;;;11.47;99.22
54978;BME280;40873;47.522;19.106;2022-12-24T11:13:28;100078.47;;;11.49;99.03
54978;BME280;40873;47.522;19.106;2022-12-24T11:16:06;100091.69;;;11.62;94.88
54978;BME280;40873;47.522;19.106;2022-12-24T11:18:44;100088.72;;;11.66;94.74
54978;BME280;40873;47.522;19.106;2022-12-24T11:21:25;100091.06;;;11.71;92.47
54978;BME280;40873;47.522;19.106;2022-12-24T11:23:56;100101.25;;;11.90;92.94
54978;BME280;40873;47.522;19.106;2022-12-24T11:26:28;100107.69;;;11.86;92.17
54978;BME280;40873;47.522;19.106;2022-12-24T11:31:31;100118.25;;;11.86;87.00
54978;BME280;40873;47.522;19.106;2022-12-24T11:34:23;100121.75;;;11.86;85.79
54978;BME280;40873;47.522;19.106;2022-12-24T11:36:52;100126.19;;;11.86;84.92
54978;BME280;40873;47.522;19.106;2022-12-24T11:39:22;100120.25;;;11.82;84.00
54978;BME280;40873;47.522;19.106;2022-12-24T11:41:50;100122.03;;;11.82;83.08
54978;BME280;40873;47.522;19.106;2022-12-24T11:44:26;100116.41;;;11.73;82.71
54978;BME280;40873;47.522;19.106;2022-12-24T11:46:54;100123.00;;;11.80;81.65
54978;BME280;40873;47.522;19.106;2022-12-24T11:49:30;100119.72;;;11.77;82.42
54978;BME280;40873;47.522;19.106;2022-12-24T11:57:45;100116.94;;;11.78;81.84
54978;BME280;40873;47.522;19.106;2022-12-24T12:00:14;100122.25;;;11.78;80.78
54978;BME280;40873;47.522;19.106;2022-12-24T12:02:43;100110.97;;;11.89;78.52
54978;BME280;40873;47.522;19.106;2022-12-24T12:05:18;100111.91;;;11.88;79.22
54978;BME280;40873;47.522;19.106;2022-12-24T12:07:50;100122.59;;;11.87;79.84
54978;BME280;40873;47.522;19.106;2022-12-24T12:10:27;100119.28;;;11.96;77.55
54978;BME280;40873;47.522;19.106;2022-12-24T12:13:00;100128.09;;;11.96;78.81
54978;BME280;40873;47.522;19.106;2022-12-24T12:15:33;100133.69;;;11.92;78.37
54978;BME280;40873;47.522;19.106;2022-12-24T12:18:23;100137.41;;;11.89;77.71
54978;BME280;40873;47.522;19.106;2022-12-24T12:20:59;100133.38;;;11.96;76.32
54978;BME280;40873;47.522;19.106;2022-12-24T12:23:37;100143.63;;;12.01;76.08
54978;BME280;40873;47.522;19.106;2022-12-24T12:26:11;100145.31;;;12.02;75.79
54978;BME280;40873;47.522;19.106;2022-12-24T12:28:54;100152.38;;;12.01;75.77
54978;BME280;40873;47.522;19.106;2022-12-24T12:31:25;100145.53;;;11.99;75.23
54978;BME280;40873;47.522;19.106;2022-12-24T12:36:31;100159.59;;;12.12;76.04
54978;BME280;40873;47.522;19.106;2022-12-24T12:38:59;100145.00;;;12.06;76.02
54978;BME280;40873;47.522;19.106;2022-12-24T12:52:21;100170.56;;;11.80;78.65
54978;BME280;40873;47.522;19.106;2022-12-24T12:55:06;100180.78;;;11.72;79.29
54978;BME280;40873;47.522;19.106;2022-12-24T12:57:52;100177.53;;;11.69;78.98
54978;BME280;40873;47.522;19.106;2022-12-24T13:00:21;100181.53;;;11.62;79.75
54978;BME280;40873;47.522;19.106;2022-12-24T13:03:11;100183.13;;;11.64;79.72
54978;BME280;40873;47.522;19.106;2022-12-24T13:06:22;100176.13;;;11.63;80.27
54978;BME280;40873;47.522;19.106;2022-12-24T13:20:30;100193.63;;;11.39;83.66
54978;BME280;40873;47.522;19.106;2022-12-24T13:23:01;100185.06;;;11.35;84.46
54978;BME280;40873;47.522;19.106;2022-12-24T13:36:05;100196.03;;;11.29;86.44
54978;BME280;40873;47.522;19.106;2022-12-24T13:38:39;100201.19;;;11.31;86.95
54978;BME280;40873;47.522;19.106;2022-12-24T13:49:31;100215.88;;;11.22;88.18
54978;BME280;40873;47.522;19.106;2022-12-24T13:54:41;100218.91;;;11.16;88.72
54978;BME280;40873;47.522;19.106;2022-12-24T14:00:03;100227.31;;;11.08;89.69
54978;BME280;40873;47.522;19.106;2022-12-24T14:02:36;100231.09;;;11.04;90.20
54978;BME280;40873;47.522;19.106;2022-12-24T14:05:14;100234.69;;;11.03;90.25
54978;BME280;40873;47.522;19.106;2022-12-24T14:07:48;100232.16;;;11.02;91.00
54978;BME280;40873;47.522;19.106;2022-12-24T14:10:22;100237.81;;;10.95;91.24
54978;BME280;40873;47.522;19.106;2022-12-24T14:12:51;100241.28;;;10.96;90.82
54978;BME280;40873;47.522;19.106;2022-12-24T14:15:45;100250.16;;;10.95;91.44
54978;BME280;40873;47.522;19.106;2022-12-24T14:18:20;100250.16;;;10.95;91.09
54978;BME280;40873;47.522;19.106;2022-12-24T14:20:50;100262.63;;;10.93;91.71
54978;BME280;40873;47.522;19.106;2022-12-24T14:25:55;100269.31;;;10.84;92.06
54978;BME280;40873;47.522;19.106;2022-12-24T14:28:31;100268.09;;;10.76;93.61
54978;BME280;40873;47.522;19.106;2022-12-24T14:31:02;100270.72;;;10.76;93.21
54978;BME280;40873;47.522;19.106;2022-12-24T14:33:33;100267.63;;;10.69;94.39
54978;BME280;40873;47.522;19.106;2022-12-24T14:36:01;100279.31;;;10.65;94.85
54978;BME280;40873;47.522;19.106;2022-12-24T14:38:29;100289.09;;;10.63;95.59
54978;BME280;40873;47.522;19.106;2022-12-24T14:44:19;100302.28;;;10.49;96.04
54978;BME280;40873;47.522;19.106;2022-12-24T14:46:56;100311.25;;;10.46;96.93
54978;BME280;40873;47.522;19.106;2022-12-24T14:49:57;100320.56;;;10.37;97.88
54978;BME280;40873;47.522;19.106;2022-12-24T14:52:35;100319.50;;;10.26;98.65
54978;BME280;40873;47.522;19.106;2022-12-24T14:55:31;100318.59;;;10.11;100.00
54978;BME280;40873;47.522;19.106;2022-12-24T15:00:47;100319.56;;;9.94;100.00